aviador You're here:

KLAF Decoded Metar

LAFAYETTE in IN, USA
Report Time2018-04-23 22:54:00
UTC Time2018-04-23 23:04:50
Flight Rules mvfr MVFR
Wind100° at 13 kt
W.Decomp.*RWY 10: 13.0 kt HW 0.2 kt RCW
RWY 05: 8.2 kt HW 10.1 kt RCW
W.Rank100° ranks 24
Current wind is above 100° avg. (6.7)
Visibility9999 m
Phenomena:N/A
Clouds:Overcast 019 Hf
Expected CloudBase > 400 ft AGL from Temp-Dew spread
Ceiling1,900 ft
Temp13°C (ISA -1)
Dew Point12°C (94% RH)
AAT9.0°C
QNH1018 hPa
Density Alt522 ft
Elevation597 ft
Report Wrong Elevation
Raw Report
KLAF 232254Z 10013KT 10SM OVC019 13/12 A3005 RMK AO2 RAE29 SLP178
P0000 T01330122=

Extra information for KLAF:More info

Metar Taf Metar & Taf Last 4 Metars F.Rules Stats Wind Profile Meteogram Temp Stats Airport Information Weather charts Add Link Nearby VenuesMetar ALERT Operation Metar Decoded Social comments

AIRNAV info for KLAF